Terminal Aerodrome Forecast
Issued by NWS

Home | Current Version | Previous Version | Text Only | Print | Product List | Glossary On
Versions: 1 2 3 4 5 6 7 8 9 10 11 12 13 14 15 16
000
FTAK31 PAFA 252334
TAFASC
TAF
PASC 252334Z 2600/2624 33004KT P6SM BKN050 BKN120
     FM260600 01004KT 2SM BR SCT150
     FM261000 09006KT P6SM SCT250
     FM262200 09013KT P6SM SKC=

USA.gov is the U.S. government's official web portal to all federal, state and local government web resources and services.